createdAt,value
2024-04-10T00:00:14.417Z,2.35
2024-04-10T00:02:41.450Z,3.08
2024-04-10T00:05:08.947Z,3.08
2024-04-10T00:07:36.094Z,2.75
2024-04-10T00:10:03.646Z,2.85
2024-04-10T00:12:30.256Z,3.20
2024-04-10T00:14:56.908Z,2.40
2024-04-10T00:17:27.948Z,3.25
2024-04-10T00:19:54.661Z,2.93
2024-04-10T00:22:21.351Z,2.63
2024-04-10T00:24:47.958Z,2.38
2024-04-10T00:27:16.356Z,3.15
2024-04-10T00:29:42.933Z,2.72
2024-04-10T00:32:10.537Z,2.78
2024-04-10T00:34:37.317Z,2.95
2024-04-10T00:37:04.442Z,3.00
2024-04-10T00:39:31.060Z,3.03
2024-04-10T00:41:57.673Z,2.78
2024-04-10T00:44:24.231Z,2.75
2024-04-10T00:46:50.859Z,2.75
2024-04-10T00:49:17.835Z,3.60
2024-04-10T00:51:44.580Z,2.88
2024-04-10T00:54:12.028Z,3.17
2024-04-10T00:56:38.945Z,2.90
2024-04-10T00:59:05.676Z,3.45
2024-04-10T01:01:32.425Z,2.83
2024-04-10T01:03:59.137Z,3.78
2024-04-10T01:06:31.809Z,2.95
2024-04-10T01:08:58.697Z,3.58
2024-04-10T01:11:25.913Z,3.25
2024-04-10T01:13:52.549Z,4.03
2024-04-10T01:16:19.211Z,2.95
2024-04-10T01:18:45.892Z,3.22
2024-04-10T01:21:12.488Z,3.38
2024-04-10T01:23:39.097Z,3.45
2024-04-10T01:26:05.738Z,3.30
2024-04-10T01:28:32.294Z,3.38
2024-04-10T01:30:58.832Z,3.88
2024-04-10T01:33:25.855Z,3.70
2024-04-10T01:35:52.655Z,4.15
2024-04-10T01:38:19.272Z,4.05
2024-04-10T01:40:45.853Z,3.40
2024-04-10T01:43:12.446Z,3.20
2024-04-10T01:45:39.396Z,4.25
2024-04-10T01:48:06.349Z,3.97
2024-04-10T01:50:33.494Z,4.03
2024-04-10T01:53:00.474Z,3.10
2024-04-10T01:55:27.179Z,3.15
2024-04-10T01:57:53.716Z,3.58
2024-04-10T02:00:20.588Z,4.40
2024-04-10T02:02:47.405Z,3.03
2024-04-10T02:05:14.159Z,3.20
2024-04-10T02:07:41.112Z,3.05
2024-04-10T02:10:07.771Z,3.80
2024-04-10T02:12:34.302Z,3.65
2024-04-10T02:15:00.883Z,3.38
2024-04-10T02:17:27.506Z,3.40
2024-04-10T02:19:54.101Z,4.00
2024-04-10T02:22:20.684Z,4.95
2024-04-10T02:24:47.222Z,3.78
2024-04-10T02:27:13.841Z,3.10
2024-04-10T02:29:42.114Z,4.40
2024-04-10T02:32:08.708Z,3.28
2024-04-10T02:34:35.786Z,3.17
2024-04-10T02:37:02.355Z,3.85
2024-04-10T02:39:29.489Z,4.30
2024-04-10T02:41:56.097Z,4.45
2024-04-10T02:44:22.865Z,3.90
2024-04-10T02:46:49.542Z,3.53
2024-04-10T02:49:16.128Z,3.28
2024-04-10T02:51:42.647Z,3.83
2024-04-10T02:54:10.223Z,3.38
2024-04-10T02:56:36.902Z,3.55
2024-04-10T02:59:03.485Z,3.70
2024-04-10T03:01:30.538Z,3.00
2024-04-10T03:03:57.227Z,4.40
2024-04-10T03:06:23.917Z,4.00
2024-04-10T03:08:51.674Z,3.42
2024-04-10T03:11:19.708Z,3.83
2024-04-10T03:13:46.875Z,3.42
2024-04-10T03:16:13.469Z,3.53
2024-04-10T03:18:40.381Z,3.75
2024-04-10T03:21:07.957Z,4.55
2024-04-10T03:23:34.809Z,3.65
2024-04-10T03:26:05.662Z,3.38
2024-04-10T03:28:32.400Z,4.82
2024-04-10T03:30:58.916Z,3.58
2024-04-10T03:33:27.584Z,3.53
2024-04-10T03:35:54.607Z,3.47
2024-04-10T03:38:21.759Z,3.45
2024-04-10T03:40:48.440Z,3.97
2024-04-10T03:43:15.000Z,3.30
2024-04-10T03:45:41.806Z,3.47
2024-04-10T03:48:10.866Z,4.00
2024-04-10T03:50:37.611Z,4.53
2024-04-10T03:53:04.304Z,4.05
2024-04-10T03:55:31.159Z,3.92
2024-04-10T03:57:57.711Z,4.15
2024-04-10T04:00:27.765Z,3.78
2024-04-10T04:02:54.471Z,3.63
2024-04-10T04:05:21.191Z,4.78
2024-04-10T04:07:47.775Z,3.15
2024-04-10T04:10:14.631Z,3.10
2024-04-10T04:12:41.205Z,4.35
2024-04-10T04:15:08.655Z,3.72
2024-04-10T04:17:36.571Z,4.43
2024-04-10T04:20:03.980Z,3.80
2024-04-10T04:22:30.619Z,3.85
2024-04-10T04:24:57.167Z,3.50
2024-04-10T04:27:26.672Z,3.92
2024-04-10T04:29:53.240Z,3.22
2024-04-10T04:32:19.841Z,2.85
2024-04-10T04:34:46.440Z,3.08
2024-04-10T04:37:12.985Z,4.47
2024-04-10T04:39:39.556Z,3.03
2024-04-10T04:42:06.122Z,4.40
2024-04-10T04:44:32.681Z,3.75
2024-04-10T04:46:59.364Z,2.75
2024-04-10T04:49:26.309Z,3.35
2024-04-10T04:51:52.843Z,3.45
2024-04-10T04:54:19.366Z,3.50
2024-04-10T04:56:45.982Z,3.85
2024-04-10T04:59:12.602Z,3.35
2024-04-10T05:01:39.340Z,4.13
2024-04-10T05:04:25.264Z,3.63
2024-04-10T05:06:51.921Z,3.13
2024-04-10T05:09:18.448Z,4.28
2024-04-10T05:11:45.260Z,3.83
2024-04-10T05:14:12.188Z,4.05
2024-04-10T05:16:38.800Z,2.92
2024-04-10T05:19:07.687Z,3.28
2024-04-10T05:21:34.413Z,2.85
2024-04-10T05:24:00.958Z,3.22
2024-04-10T05:26:27.652Z,4.20
2024-04-10T05:28:54.284Z,3.63
2024-04-10T05:31:20.815Z,3.42
2024-04-10T05:33:47.530Z,2.78
2024-04-10T05:36:14.170Z,3.03
2024-04-10T05:38:40.992Z,4.07
2024-04-10T05:41:07.670Z,3.75
2024-04-10T05:43:34.235Z,3.10
2024-04-10T05:46:01.313Z,3.83
2024-04-10T05:48:28.350Z,3.33
2024-04-10T05:50:59.831Z,3.20
2024-04-10T05:53:27.293Z,2.93
2024-04-10T05:55:54.247Z,3.45
2024-04-10T05:59:37.733Z,3.30
2024-04-10T06:02:04.735Z,5.10
2024-04-10T06:04:32.038Z,4.53
2024-04-10T06:06:58.580Z,3.80
2024-04-10T06:09:25.123Z,4.10
2024-04-10T06:11:51.896Z,3.67
2024-04-10T06:14:18.954Z,2.55
2024-04-10T06:16:45.505Z,2.83
2024-04-10T06:19:12.100Z,3.10
2024-04-10T06:21:38.732Z,2.47
2024-04-10T06:24:06.495Z,2.58
2024-04-10T06:26:33.110Z,2.80
2024-04-10T06:28:59.765Z,3.28
2024-04-10T06:31:26.313Z,2.75
2024-04-10T06:33:52.954Z,3.33
2024-04-10T06:36:19.569Z,3.05
2024-04-10T06:38:46.150Z,2.72
2024-04-10T06:41:12.906Z,2.80
2024-04-10T06:43:39.809Z,3.33
2024-04-10T06:46:09.213Z,3.08
2024-04-10T06:48:36.149Z,2.95
2024-04-10T06:51:03.976Z,3.15
2024-04-10T06:53:30.992Z,3.15
2024-04-10T06:56:02.139Z,3.97
2024-04-10T06:58:29.662Z,2.57
2024-04-10T07:00:56.492Z,2.90
2024-04-10T07:03:23.158Z,2.65
2024-04-10T07:05:50.337Z,2.72
2024-04-10T07:08:17.200Z,2.97
2024-04-10T07:10:44.452Z,2.25
2024-04-10T07:13:11.008Z,2.72
2024-04-10T07:15:37.707Z,3.28
2024-04-10T07:18:05.652Z,4.10
2024-04-10T07:20:33.237Z,2.33
2024-04-10T07:23:00.103Z,3.22
2024-04-10T07:25:26.841Z,2.67
2024-04-10T07:27:53.441Z,3.20
2024-04-10T07:30:20.035Z,2.47
2024-04-10T07:32:46.737Z,3.08
2024-04-10T07:35:13.489Z,2.92
2024-04-10T07:37:40.080Z,3.05
2024-04-10T07:40:07.081Z,2.45
2024-04-10T07:42:33.739Z,2.83
2024-04-10T07:45:00.450Z,3.20
2024-04-10T07:47:27.206Z,2.85
2024-04-10T07:49:53.904Z,3.05
2024-04-10T07:52:20.470Z,3.50
2024-04-10T07:54:47.206Z,2.72
2024-04-10T07:57:14.496Z,1.85
2024-04-10T07:59:41.155Z,2.60
2024-04-10T08:02:07.785Z,3.53
2024-04-10T08:04:34.395Z,3.08
2024-04-10T08:07:00.950Z,2.45
2024-04-10T08:09:27.543Z,2.35
2024-04-10T08:11:54.246Z,2.58
2024-04-10T08:14:20.937Z,2.42
2024-04-10T08:16:47.508Z,2.92
2024-04-10T08:19:14.162Z,3.00
2024-04-10T08:21:40.881Z,2.65
2024-04-10T08:24:08.148Z,2.75
2024-04-10T08:26:35.664Z,2.20
2024-04-10T08:29:04.411Z,3.05
2024-04-10T08:31:31.388Z,2.13
2024-04-10T08:33:58.335Z,3.03
2024-04-10T08:36:26.216Z,2.25
2024-04-10T08:38:53.134Z,2.58
2024-04-10T08:41:20.662Z,2.42
2024-04-10T08:43:48.126Z,2.42
2024-04-10T08:46:16.008Z,2.83
2024-04-10T08:48:43.597Z,2.58
2024-04-10T08:51:12.344Z,2.45
2024-04-10T08:53:40.422Z,3.08
2024-04-10T08:56:10.372Z,2.55
2024-04-10T08:58:37.735Z,1.48
2024-04-10T09:01:04.857Z,2.53
2024-04-10T09:03:31.720Z,1.90
2024-04-10T09:06:08.593Z,2.92
2024-04-10T09:08:35.732Z,2.47
2024-04-10T09:11:02.431Z,2.28
2024-04-10T09:13:30.079Z,2.25
2024-04-10T09:15:58.658Z,2.33
2024-04-10T09:18:25.456Z,2.60
2024-04-10T09:20:52.660Z,2.80
2024-04-10T09:23:19.511Z,2.38
2024-04-10T09:25:48.411Z,2.00
2024-04-10T09:28:15.177Z,1.60
2024-04-10T09:30:43.029Z,2.47
2024-04-10T09:33:10.000Z,2.40
2024-04-10T09:35:36.685Z,1.60
2024-04-10T09:38:03.869Z,2.22
2024-04-10T09:40:31.199Z,1.80
2024-04-10T09:43:05.198Z,2.13
2024-04-10T09:45:35.510Z,1.52
2024-04-10T09:48:10.118Z,1.83
2024-04-10T09:50:38.110Z,1.77
2024-04-10T09:53:08.281Z,1.83
2024-04-10T09:55:38.434Z,1.70
2024-04-10T09:58:06.532Z,1.90
2024-04-10T10:00:34.844Z,1.67
2024-04-10T10:03:08.399Z,1.92
2024-04-10T10:05:41.246Z,1.85
2024-04-10T10:08:15.593Z,2.03
2024-04-10T10:10:51.114Z,2.20
2024-04-10T10:13:33.729Z,2.28
2024-04-10T10:16:00.844Z,1.40
2024-04-10T10:18:33.797Z,1.45
2024-04-10T10:21:05.965Z,1.60
2024-04-10T10:23:33.226Z,1.30
2024-04-10T10:25:59.840Z,1.58
2024-04-10T10:28:26.376Z,1.30
2024-04-10T10:30:52.890Z,1.67
2024-04-10T10:33:23.145Z,2.00
2024-04-10T10:35:49.844Z,1.42
2024-04-10T10:38:16.704Z,1.17
2024-04-10T10:40:43.315Z,1.25
2024-04-10T10:43:10.007Z,1.38
2024-04-10T10:45:37.100Z,1.08
2024-04-10T10:48:04.556Z,1.63
2024-04-10T10:50:31.716Z,1.27
2024-04-10T10:52:58.632Z,1.15
2024-04-10T10:55:25.607Z,0.93
2024-04-10T10:58:04.830Z,1.35
2024-04-10T11:00:32.875Z,1.60
2024-04-10T11:03:13.670Z,0.82
2024-04-10T11:05:47.432Z,1.45
2024-04-10T11:08:20.569Z,1.27
2024-04-10T11:10:47.819Z,1.45
2024-04-10T11:13:14.358Z,1.33
2024-04-10T11:15:46.808Z,1.17
2024-04-10T11:18:17.765Z,1.52
2024-04-10T11:20:44.758Z,0.47
2024-04-10T11:23:12.007Z,0.70
2024-04-10T11:25:38.929Z,1.02
2024-04-10T11:28:05.843Z,1.38
2024-04-10T11:30:33.001Z,1.52
2024-04-10T11:32:59.740Z,0.93
2024-04-10T11:35:26.749Z,0.85
2024-04-10T11:37:54.207Z,0.95
2024-04-10T11:40:20.785Z,0.93
2024-04-10T11:42:47.558Z,1.17
2024-04-10T11:45:14.160Z,1.35
2024-04-10T11:47:44.759Z,0.98
2024-04-10T11:50:15.023Z,1.38
2024-04-10T11:52:41.679Z,0.77
2024-04-10T11:55:08.896Z,0.77
2024-04-10T11:57:35.903Z,1.30
2024-04-10T12:00:05.909Z,0.88
2024-04-10T12:02:39.182Z,0.63
2024-04-10T12:05:06.474Z,1.00
2024-04-10T12:07:33.410Z,0.70
2024-04-10T12:09:59.952Z,1.27
2024-04-10T12:12:27.008Z,1.02
2024-04-10T12:14:53.675Z,1.60
2024-04-10T12:17:20.431Z,1.33
2024-04-10T12:19:47.144Z,2.08
2024-04-10T12:22:13.758Z,1.60
2024-04-10T12:24:40.300Z,1.45
2024-04-10T12:27:06.865Z,2.17
2024-04-10T12:29:34.593Z,5.45
2024-04-10T12:32:01.249Z,1.25
2024-04-10T12:34:28.487Z,0.73
2024-04-10T12:37:13.941Z,1.58
2024-04-10T12:39:40.598Z,1.70
2024-04-10T12:42:07.232Z,0.80
2024-04-10T12:44:36.527Z,0.95
2024-04-10T12:47:03.523Z,0.68
2024-04-10T12:49:30.220Z,1.00
2024-04-10T12:51:56.800Z,1.42
2024-04-10T12:54:23.349Z,1.38
2024-04-10T12:56:50.000Z,0.40
2024-04-10T12:59:16.595Z,1.15
2024-04-10T13:01:43.173Z,0.60
2024-04-10T13:04:10.089Z,1.02
2024-04-10T13:06:38.121Z,0.75
2024-04-10T13:09:05.116Z,1.20
2024-04-10T13:11:32.160Z,1.02
2024-04-10T13:13:58.969Z,0.70
2024-04-10T13:16:25.595Z,0.90
2024-04-10T13:18:52.270Z,0.60
2024-04-10T13:21:18.962Z,0.68
2024-04-10T13:23:45.754Z,0.80
2024-04-10T13:26:12.811Z,0.95
2024-04-10T13:28:40.283Z,0.77
2024-04-10T13:31:08.707Z,0.90
2024-04-10T13:33:37.400Z,0.85
2024-04-10T13:36:08.240Z,0.77
2024-04-10T13:38:35.367Z,0.88
2024-04-10T13:41:02.398Z,1.00
2024-04-10T13:43:29.352Z,1.15
2024-04-10T13:45:56.267Z,0.50
2024-04-10T13:48:22.926Z,2.10
2024-04-10T13:50:50.471Z,0.77
2024-04-10T13:53:17.124Z,0.80
2024-04-10T13:55:44.852Z,0.90
2024-04-10T13:58:11.637Z,0.63
2024-04-10T14:00:38.154Z,1.02
2024-04-10T14:03:07.330Z,0.50
2024-04-10T14:05:34.622Z,1.05
2024-04-10T14:08:01.211Z,0.75
2024-04-10T14:10:27.774Z,0.93
2024-04-10T14:12:54.583Z,0.47
2024-04-10T14:15:21.372Z,0.55
2024-04-10T14:17:48.004Z,0.88
2024-04-10T14:20:14.765Z,0.40
2024-04-10T14:22:41.403Z,0.77
2024-04-10T14:25:09.325Z,1.58
2024-04-10T14:27:35.879Z,0.80
2024-04-10T14:30:02.682Z,1.05
2024-04-10T14:32:30.475Z,0.98
2024-04-10T14:35:02.020Z,1.02
2024-04-10T14:37:28.804Z,0.70
2024-04-10T14:39:55.404Z,0.80
2024-04-10T14:42:22.207Z,1.13
2024-04-10T14:44:48.861Z,0.88
2024-04-10T14:47:15.512Z,0.75
2024-04-10T14:49:42.228Z,1.35
2024-04-10T14:52:08.831Z,0.85
2024-04-10T14:54:35.343Z,1.23
2024-04-10T14:57:02.208Z,0.90
2024-04-10T14:59:29.141Z,1.70
2024-04-10T15:01:56.580Z,0.88
2024-04-10T15:04:24.829Z,1.15
2024-04-10T15:06:51.593Z,0.88
2024-04-10T15:09:18.152Z,0.95
2024-04-10T15:11:44.768Z,1.27
2024-04-10T15:14:11.381Z,1.52
2024-04-10T15:16:37.960Z,1.00
2024-04-10T15:19:04.633Z,1.33
2024-04-10T15:21:31.299Z,1.48
2024-04-10T15:23:58.280Z,1.00
2024-04-10T15:26:24.963Z,1.08
2024-04-10T15:28:51.557Z,1.23
2024-04-10T15:31:18.132Z,1.60
2024-04-10T15:33:44.885Z,0.95
2024-04-10T15:36:12.644Z,1.10
2024-04-10T15:38:39.991Z,1.10
2024-04-10T15:41:07.628Z,1.60
2024-04-10T15:43:34.545Z,0.98
2024-04-10T15:46:01.588Z,1.02
2024-04-10T15:48:28.888Z,1.20
2024-04-10T15:50:57.120Z,1.02
2024-04-10T15:53:24.284Z,1.05
2024-04-10T15:56:05.851Z,0.70
2024-04-10T15:58:36.490Z,0.85
2024-04-10T16:01:05.855Z,1.38
2024-04-10T16:03:33.504Z,0.90
2024-04-10T16:06:01.028Z,1.15
2024-04-10T16:08:28.187Z,1.23
2024-04-10T16:10:54.987Z,1.33
2024-04-10T16:13:21.627Z,0.95
2024-04-10T16:15:48.153Z,1.13
2024-04-10T16:18:16.513Z,1.15
2024-04-10T16:20:43.205Z,1.10
2024-04-10T16:23:09.991Z,1.17
2024-04-10T16:25:36.682Z,1.45
2024-04-10T16:28:03.262Z,0.95
2024-04-10T16:30:29.894Z,1.10
2024-04-10T16:32:59.275Z,0.90
2024-04-10T16:35:29.724Z,1.08
2024-04-10T16:37:56.879Z,1.10
2024-04-10T16:40:23.609Z,1.23
2024-04-10T16:42:53.214Z,1.23
2024-04-10T16:45:21.714Z,1.67
2024-04-10T16:47:48.356Z,1.20
2024-04-10T16:50:14.984Z,0.95
2024-04-10T16:52:41.561Z,1.48
2024-04-10T16:55:08.213Z,1.00
2024-04-10T16:57:34.726Z,1.15
2024-04-10T17:00:01.565Z,1.17
2024-04-10T17:02:28.303Z,1.40
2024-04-10T17:04:55.782Z,1.25
2024-04-10T17:07:22.354Z,1.25
2024-04-10T17:09:48.857Z,1.70
2024-04-10T17:12:15.443Z,1.00
2024-04-10T17:14:42.730Z,1.02
2024-04-10T17:17:09.288Z,1.10
2024-04-10T17:19:54.284Z,1.80
2024-04-10T17:22:20.788Z,1.55
2024-04-10T17:24:47.345Z,1.70
2024-04-10T17:27:14.272Z,1.45
2024-04-10T17:29:40.931Z,1.15
2024-04-10T17:32:09.860Z,1.42
2024-04-10T17:34:36.486Z,1.67
2024-04-10T17:37:03.648Z,1.20
2024-04-10T17:39:38.931Z,1.40
2024-04-10T17:42:06.191Z,0.93
2024-04-10T17:44:32.815Z,1.88
2024-04-10T17:46:59.404Z,1.50
2024-04-10T17:49:26.006Z,1.45
2024-04-10T17:51:52.576Z,1.77
2024-04-10T17:54:19.368Z,1.48
2024-04-10T17:56:45.962Z,1.30
2024-04-10T17:59:14.179Z,2.28
2024-04-10T18:01:41.988Z,2.08
2024-04-10T18:04:08.738Z,1.40
2024-04-10T18:06:37.721Z,1.33
2024-04-10T18:09:04.369Z,1.38
2024-04-10T18:11:31.060Z,1.77
2024-04-10T18:13:58.043Z,1.80
2024-04-10T18:16:24.532Z,2.15
2024-04-10T18:18:53.204Z,1.75
2024-04-10T18:21:19.843Z,2.40
2024-04-10T18:23:46.436Z,1.38
2024-04-10T18:26:13.171Z,1.30
2024-04-10T18:28:42.959Z,1.25
2024-04-10T18:31:10.087Z,1.38
2024-04-10T18:33:37.696Z,1.58
2024-04-10T18:36:05.538Z,1.30
2024-04-10T18:38:32.794Z,1.63
2024-04-10T18:41:06.077Z,2.15
2024-04-10T18:43:36.590Z,1.63
2024-04-10T18:48:35.401Z,1.70
2024-04-10T18:51:15.864Z,1.92
2024-04-10T18:53:43.947Z,1.73
2024-04-10T18:56:10.567Z,1.13
2024-04-10T18:58:37.164Z,1.80
2024-04-10T19:01:04.740Z,2.53
2024-04-10T19:03:31.540Z,1.77
2024-04-10T19:05:58.488Z,1.45
2024-04-10T19:08:28.106Z,1.65
2024-04-10T19:10:54.707Z,1.60
2024-04-10T19:13:22.912Z,1.83
2024-04-10T19:15:49.872Z,2.15
2024-04-10T19:18:17.063Z,1.80
2024-04-10T19:20:48.397Z,1.55
2024-04-10T19:23:14.910Z,1.90
2024-04-10T19:25:41.450Z,1.52
2024-04-10T19:28:08.184Z,1.90
2024-04-10T19:30:35.202Z,2.45
2024-04-10T19:33:05.027Z,1.50
2024-04-10T19:35:33.003Z,1.83
2024-04-10T19:37:59.589Z,2.10
2024-04-10T19:40:26.091Z,1.95
2024-04-10T19:42:52.661Z,2.17
2024-04-10T19:45:19.207Z,1.73
2024-04-10T19:47:45.917Z,1.63
2024-04-10T19:50:12.604Z,1.70
2024-04-10T19:52:39.120Z,1.92
2024-04-10T19:55:05.737Z,2.47
2024-04-10T19:57:32.609Z,1.63
2024-04-10T20:00:00.095Z,1.98
2024-04-10T20:02:26.697Z,2.35
2024-04-10T20:04:53.270Z,2.45
2024-04-10T20:07:19.832Z,2.50
2024-04-10T20:09:46.918Z,1.92
2024-04-10T20:12:13.674Z,2.15
2024-04-10T20:14:40.408Z,2.63
2024-04-10T20:17:07.015Z,2.17
2024-04-10T20:19:33.952Z,1.63
2024-04-10T20:22:00.668Z,1.20
2024-04-10T20:24:27.228Z,1.90
2024-04-10T20:26:53.802Z,1.73
2024-04-10T20:29:20.343Z,1.70
2024-04-10T20:31:46.990Z,1.42
2024-04-10T20:34:13.912Z,1.50
2024-04-10T20:36:40.656Z,1.90
2024-04-10T20:39:08.207Z,2.10
2024-04-10T20:41:37.842Z,1.98
2024-04-10T20:44:05.218Z,1.88
2024-04-10T20:46:31.750Z,1.98
2024-04-10T20:48:58.424Z,1.30
2024-04-10T20:51:25.084Z,0.98
2024-04-10T20:53:51.740Z,2.00
2024-04-10T20:56:21.479Z,1.55
2024-04-10T20:58:48.866Z,1.67
2024-04-10T21:01:16.671Z,1.58
2024-04-10T21:03:44.328Z,1.55
2024-04-10T21:06:14.751Z,1.60
2024-04-10T21:09:03.528Z,1.55
2024-04-10T21:11:51.339Z,1.52
2024-04-10T21:14:36.934Z,1.70
2024-04-10T21:17:22.110Z,1.83
2024-04-10T21:20:07.327Z,1.30
2024-04-10T21:22:52.607Z,1.65
2024-04-10T21:25:38.835Z,1.45
2024-04-10T21:28:24.135Z,1.17
2024-04-10T21:31:09.535Z,1.52
2024-04-10T21:33:55.025Z,1.33
2024-04-10T21:36:40.296Z,1.55
2024-04-10T21:39:25.707Z,1.98
2024-04-10T21:42:11.141Z,1.92
2024-04-10T21:44:56.625Z,1.20
2024-04-10T21:47:43.085Z,1.45
2024-04-10T21:50:29.775Z,2.38
2024-04-10T21:53:15.042Z,2.00
2024-04-10T21:56:00.689Z,2.00
2024-04-10T21:58:46.574Z,1.02
2024-04-10T22:01:33.763Z,1.20
2024-04-10T22:04:22.082Z,1.88
2024-04-10T22:07:07.379Z,1.90
2024-04-10T22:09:33.980Z,1.65
2024-04-10T22:12:04.666Z,1.55
2024-04-10T22:14:31.378Z,1.67
2024-04-10T22:17:16.294Z,1.13
2024-04-10T22:20:06.101Z,1.23
2024-04-10T22:22:51.197Z,1.55
2024-04-10T22:25:17.740Z,1.25
2024-04-10T22:27:45.712Z,1.30
2024-04-10T22:30:12.619Z,1.30
2024-04-10T22:32:39.463Z,1.88
2024-04-10T22:35:06.067Z,1.23
2024-04-10T22:37:32.604Z,1.90
2024-04-10T22:39:59.107Z,1.15
2024-04-10T22:42:25.649Z,1.90
2024-04-10T22:44:52.284Z,1.45
2024-04-10T22:47:19.393Z,1.77
2024-04-10T22:49:49.651Z,1.35
2024-04-10T22:52:17.435Z,1.55
2024-04-10T22:54:44.157Z,2.08
2024-04-10T22:57:10.712Z,1.40
2024-04-10T22:59:37.259Z,1.85
2024-04-10T23:02:03.908Z,1.65
2024-04-10T23:04:30.466Z,1.38
2024-04-10T23:07:33.975Z,1.70
2024-04-10T23:09:44.737Z,1.83
2024-04-10T23:12:11.499Z,1.33
2024-04-10T23:14:38.077Z,2.15
2024-04-10T23:17:04.670Z,1.70
2024-04-10T23:19:31.858Z,1.60
2024-04-10T23:21:58.751Z,1.60
2024-04-10T23:24:26.088Z,1.63
2024-04-10T23:26:52.789Z,1.60
2024-04-10T23:29:19.771Z,1.50
2024-04-10T23:31:46.736Z,2.03
2024-04-10T23:34:14.176Z,1.35
2024-04-10T23:36:41.025Z,1.80
2024-04-10T23:39:08.253Z,1.48
2024-04-10T23:41:34.950Z,1.35
2024-04-10T23:44:04.205Z,1.50
2024-04-10T23:46:30.760Z,1.73
2024-04-10T23:48:57.350Z,1.55
2024-04-10T23:51:24.281Z,1.10
2024-04-10T23:53:50.905Z,1.25
2024-04-10T23:56:17.439Z,1.10
2024-04-10T23:58:44.002Z,1.60
